createdAt,value
2022-09-05T00:00:12.306Z,101112.47
2022-09-05T00:02:53.629Z,101112.69
2022-09-05T00:06:00.119Z,101113.19
2022-09-05T00:08:45.275Z,101108.19
2022-09-05T00:14:53.682Z,101115.63
2022-09-05T00:17:22.745Z,101104.97
2022-09-05T00:24:33.058Z,101115.09
2022-09-05T00:24:36.714Z,101109.69
2022-09-05T00:26:20.753Z,101109.00
2022-09-05T00:31:55.941Z,101108.75
2022-09-05T00:34:47.447Z,101116.84
2022-09-05T00:37:32.140Z,101108.56
2022-09-05T00:40:18.314Z,101108.94
2022-09-05T00:42:57.216Z,101112.56
2022-09-05T00:45:31.938Z,101110.13
2022-09-05T00:48:08.648Z,101118.47
2022-09-05T00:50:54.385Z,101120.75
2022-09-05T00:53:29.757Z,101110.94
2022-09-05T00:56:07.885Z,101104.94
2022-09-05T00:58:58.405Z,101108.03
2022-09-05T01:01:32.107Z,101107.41
2022-09-05T01:04:26.209Z,101110.19
2022-09-05T01:07:11.621Z,101109.50
2022-09-05T01:09:51.271Z,101106.28
2022-09-05T01:12:53.453Z,101105.59
2022-09-05T01:15:33.693Z,101102.75
2022-09-05T01:18:15.065Z,101107.75
2022-09-05T01:21:02.781Z,101099.28
2022-09-05T01:23:50.593Z,101098.69
2022-09-05T01:26:47.906Z,101098.03
2022-09-05T01:29:26.434Z,101099.88
2022-09-05T01:32:10.333Z,101100.56
2022-09-05T01:34:55.551Z,101106.75
2022-09-05T01:37:34.013Z,101107.88
2022-09-05T01:40:16.821Z,101098.28
2022-09-05T01:42:57.100Z,101099.28
2022-09-05T01:45:42.613Z,101108.25
2022-09-05T01:48:24.212Z,101105.44
2022-09-05T01:51:28.795Z,101110.81
2022-09-05T01:54:21.357Z,101110.16
2022-09-05T01:57:09.258Z,101107.56
2022-09-05T01:59:47.956Z,101110.66
2022-09-05T02:02:24.372Z,101106.91
2022-09-05T02:05:12.974Z,101111.03
2022-09-05T02:08:16.907Z,101105.66
2022-09-05T02:11:01.300Z,101111.19
2022-09-05T02:13:43.722Z,101106.78
2022-09-05T02:16:21.509Z,101099.97
2022-09-05T02:18:58.469Z,101100.31
2022-09-05T02:21:56.730Z,101112.16
2022-09-05T02:24:30.168Z,101108.75
2022-09-05T02:27:35.906Z,101108.88
2022-09-05T02:30:09.129Z,101108.09
2022-09-05T02:32:49.313Z,101112.00
2022-09-05T02:35:27.131Z,101111.13
2022-09-05T02:42:19.570Z,101108.03
2022-09-05T02:45:02.202Z,101109.75
2022-09-05T02:45:24.340Z,101104.53
2022-09-05T02:46:51.071Z,101111.63
2022-09-05T02:51:11.183Z,101101.47
2022-09-05T02:57:30.217Z,101099.50
2022-09-05T02:57:42.874Z,101099.97
2022-09-05T02:58:37.977Z,101092.63
2022-09-05T03:01:27.971Z,101088.38
2022-09-05T03:04:05.346Z,101092.28
2022-09-05T03:06:37.970Z,101092.94
2022-09-05T03:09:21.048Z,101098.75
2022-09-05T03:12:29.199Z,101095.53
2022-09-05T03:15:24.496Z,101093.97
2022-09-05T03:18:23.636Z,101101.97
2022-09-05T03:21:34.242Z,101103.78
2022-09-05T03:24:25.326Z,101102.03
2022-09-05T03:27:43.463Z,101105.13
2022-09-05T03:30:16.870Z,101098.44
2022-09-05T03:33:24.268Z,101102.69
2022-09-05T03:36:32.615Z,101097.78
2022-09-05T03:39:51.944Z,101101.06
2022-09-05T03:42:56.928Z,101105.50
2022-09-05T03:45:54.396Z,101109.25
2022-09-05T03:48:48.138Z,101111.38
2022-09-05T03:57:07.028Z,101115.94
2022-09-05T03:57:18.760Z,101111.56
2022-09-05T03:58:31.881Z,101115.75
2022-09-05T04:01:39.887Z,101115.75
2022-09-05T04:08:17.304Z,101118.19
2022-09-05T04:08:23.703Z,101111.84
2022-09-05T04:09:51.645Z,101118.84
2022-09-05T04:12:25.884Z,101119.88
2022-09-05T04:14:59.593Z,101115.16
2022-09-05T04:17:36.686Z,101117.63
2022-09-05T04:20:12.750Z,101120.44
2022-09-05T04:23:07.398Z,101120.13
2022-09-05T04:25:49.521Z,101124.97
2022-09-05T04:28:43.024Z,101120.75
2022-09-05T04:31:32.124Z,101127.09
2022-09-05T04:34:16.837Z,101128.09
2022-09-05T04:36:47.956Z,101128.25
2022-09-05T04:39:54.004Z,101122.56
2022-09-05T04:42:25.664Z,101128.41
2022-09-05T04:44:58.710Z,101124.84
2022-09-05T04:47:36.084Z,101125.31
2022-09-05T04:50:10.420Z,101125.81
2022-09-05T04:52:57.096Z,101134.25
2022-09-05T04:55:28.140Z,101134.41
2022-09-05T04:58:00.954Z,101137.47
2022-09-05T05:06:03.086Z,101144.94
2022-09-05T05:06:13.324Z,101142.34
2022-09-05T05:06:45.870Z,101149.19
2022-09-05T05:09:23.927Z,101140.59
2022-09-05T05:17:33.030Z,101150.66
2022-09-05T05:18:06.249Z,101146.28
2022-09-05T05:18:14.995Z,101148.06
2022-09-05T05:20:45.410Z,101151.78
2022-09-05T05:23:17.922Z,101156.81
2022-09-05T05:25:50.861Z,101167.22
2022-09-05T05:28:28.423Z,101161.53
2022-09-05T05:31:09.468Z,101159.94
2022-09-05T05:33:41.771Z,101165.13
2022-09-05T05:36:20.124Z,101158.28
2022-09-05T05:38:51.720Z,101159.75
2022-09-05T05:41:26.201Z,101149.53
2022-09-05T05:43:55.214Z,101163.19
2022-09-05T05:46:34.168Z,101163.03
2022-09-05T05:49:18.737Z,101158.44
2022-09-05T05:52:04.482Z,101161.50
2022-09-05T05:54:42.403Z,101156.44
2022-09-05T05:57:45.217Z,101167.78
2022-09-05T06:00:27.469Z,101168.84
2022-09-05T06:03:41.769Z,101163.75
2022-09-05T06:06:22.857Z,101168.97
2022-09-05T06:14:52.607Z,101167.75
2022-09-05T06:15:04.152Z,101157.94
2022-09-05T06:16:36.666Z,101166.31
2022-09-05T06:19:37.563Z,101163.16
2022-09-05T06:22:55.935Z,101165.53
2022-09-05T06:25:55.812Z,101172.53
2022-09-05T06:28:30.647Z,101176.16
2022-09-05T06:31:30.536Z,101185.53
2022-09-05T06:34:33.395Z,101183.03
2022-09-05T06:37:17.624Z,101181.53
2022-09-05T06:40:11.875Z,101186.88
2022-09-05T06:43:07.304Z,101186.06
2022-09-05T06:45:49.507Z,101181.97
2022-09-05T06:48:46.033Z,101177.84
2022-09-05T06:52:16.566Z,101180.34
2022-09-05T06:55:16.967Z,101179.47
2022-09-05T06:58:21.781Z,101172.06
2022-09-05T07:00:54.235Z,101180.13
2022-09-05T07:03:46.379Z,101181.47
2022-09-05T07:06:49.434Z,101180.31
2022-09-05T07:09:28.457Z,101173.75
2022-09-05T07:12:11.740Z,101178.31
2022-09-05T07:14:51.535Z,101180.84
2022-09-05T07:17:30.845Z,101180.59
2022-09-05T07:20:01.864Z,101187.75
2022-09-05T07:22:48.001Z,101181.53
2022-09-05T07:25:21.095Z,101183.78
2022-09-05T07:28:25.901Z,101191.16
2022-09-05T07:30:50.324Z,101188.13
2022-09-05T07:33:22.994Z,101191.44
2022-09-05T07:35:58.535Z,101190.38
2022-09-05T07:38:52.414Z,101194.69
2022-09-05T07:41:23.574Z,101192.84
2022-09-05T07:43:58.178Z,101191.22
2022-09-05T07:46:30.154Z,101185.75
2022-09-05T07:49:04.503Z,101199.00
2022-09-05T07:56:49.330Z,101197.25
2022-09-05T07:57:08.356Z,101196.28
2022-09-05T07:57:31.425Z,101190.44
2022-09-05T08:00:08.243Z,101196.97
2022-09-05T08:02:55.330Z,101201.28
2022-09-05T08:05:35.040Z,101206.69
2022-09-05T08:08:09.572Z,101190.97
2022-09-05T08:11:22.173Z,101191.22
2022-09-05T08:14:32.709Z,101201.06
2022-09-05T08:16:47.915Z,101192.41
2022-09-05T08:19:42.410Z,101188.50
2022-09-05T08:22:21.329Z,101197.38
2022-09-05T08:24:58.556Z,101198.38
2022-09-05T08:27:31.858Z,101197.63
2022-09-05T08:30:26.475Z,101185.81
2022-09-05T08:33:10.636Z,101192.84
2022-09-05T08:35:44.942Z,101185.22
2022-09-05T08:38:16.091Z,101191.41
2022-09-05T08:40:52.612Z,101182.81
2022-09-05T08:46:29.179Z,101181.97
2022-09-05T08:46:47.177Z,101177.31
2022-09-05T08:49:44.009Z,101182.22
2022-09-05T08:52:22.964Z,101173.00
2022-09-05T08:55:08.418Z,101164.16
2022-09-05T08:58:16.702Z,101169.78
2022-09-05T09:00:56.485Z,101175.25
2022-09-05T09:03:35.532Z,101180.25
2022-09-05T09:06:38.753Z,101164.56
2022-09-05T09:09:13.958Z,101176.81
2022-09-05T09:11:52.829Z,101178.59
2022-09-05T09:14:32.673Z,101172.75
2022-09-05T09:17:12.915Z,101177.47
2022-09-05T09:19:51.368Z,101166.22
2022-09-05T09:22:34.861Z,101165.69
2022-09-05T09:25:15.511Z,101151.75
2022-09-05T09:28:47.834Z,101141.00
2022-09-05T09:31:21.408Z,101138.88
2022-09-05T09:34:01.167Z,101139.00
2022-09-05T09:36:53.178Z,101129.78
2022-09-05T09:39:39.708Z,101136.19
2022-09-05T09:42:32.727Z,101132.75
2022-09-05T09:45:31.733Z,101134.66
2022-09-05T09:48:47.641Z,101133.00
2022-09-05T09:51:39.165Z,101136.19
2022-09-05T09:54:25.858Z,101134.72
2022-09-05T09:57:26.572Z,101127.63
2022-09-05T10:00:07.654Z,101126.31
2022-09-05T10:04:07.325Z,101136.38
2022-09-05T10:10:49.905Z,101120.81
2022-09-05T10:10:53.336Z,101133.34
2022-09-05T10:12:40.435Z,101120.31
2022-09-05T10:15:30.745Z,101131.00
2022-09-05T10:18:27.867Z,101121.41
2022-09-05T10:21:28.854Z,101120.53
2022-09-05T10:24:21.187Z,101114.03
2022-09-05T10:27:11.414Z,101111.88
2022-09-05T10:29:57.589Z,101113.84
2022-09-05T10:35:11.772Z,101110.28
2022-09-05T10:35:37.755Z,101098.22
2022-09-05T10:38:12.369Z,101096.38
2022-09-05T10:41:14.617Z,101102.72
2022-09-05T10:43:38.803Z,101098.72
2022-09-05T10:46:40.052Z,101089.91
2022-09-05T10:49:12.113Z,101093.78
2022-09-05T10:51:52.085Z,101090.13
2022-09-05T10:54:37.928Z,101087.94
2022-09-05T10:57:25.377Z,101085.84
2022-09-05T11:02:22.649Z,101085.84
2022-09-05T11:03:00.700Z,101085.00
2022-09-05T11:05:34.774Z,101081.38
2022-09-05T11:08:11.550Z,101071.78
2022-09-05T11:10:45.201Z,101073.03
2022-09-05T11:13:21.553Z,101068.78
2022-09-05T11:16:04.233Z,101065.34
2022-09-05T11:19:03.611Z,101057.75
2022-09-05T11:22:04.267Z,101059.16
2022-09-05T11:24:55.712Z,101060.19
2022-09-05T11:27:32.657Z,101060.94
2022-09-05T11:30:06.591Z,101059.56
2022-09-05T11:39:26.298Z,101051.56
2022-09-05T11:39:50.314Z,101047.06
2022-09-05T11:40:09.002Z,101048.97
2022-09-05T11:42:33.083Z,101043.38
2022-09-05T11:45:41.150Z,101042.06
2022-09-05T11:48:37.917Z,101032.75
2022-09-05T11:51:52.370Z,101036.19
2022-09-05T11:54:50.158Z,101026.56
2022-09-05T11:57:35.125Z,101042.34
2022-09-05T12:00:31.849Z,101028.19
2022-09-05T12:04:00.041Z,101036.75
2022-09-05T12:07:15.551Z,101030.22
2022-09-05T12:10:12.064Z,101032.41
2022-09-05T12:13:21.699Z,101030.78
2022-09-05T12:16:07.470Z,101026.97
2022-09-05T12:18:45.835Z,101023.22
2022-09-05T12:21:31.673Z,101017.97
2022-09-05T12:25:16.665Z,101022.41
2022-09-05T12:27:44.450Z,101020.81
2022-09-05T12:30:00.402Z,101021.22
2022-09-05T12:36:01.328Z,101021.94
2022-09-05T12:36:11.387Z,101011.25
2022-09-05T12:40:55.286Z,101016.38
2022-09-05T12:41:45.235Z,101006.88
2022-09-05T12:44:44.732Z,101011.16
2022-09-05T12:47:21.215Z,101019.28
2022-09-05T12:50:03.544Z,101017.78
2022-09-05T12:52:46.494Z,101013.44
2022-09-05T12:55:26.212Z,101006.66
2022-09-05T13:02:57.505Z,101007.13
2022-09-05T13:03:01.950Z,100999.22
2022-09-05T13:04:16.108Z,101003.19
2022-09-05T13:06:40.863Z,101011.59
2022-09-05T13:09:27.755Z,101003.78
2022-09-05T13:14:58.992Z,101000.91
2022-09-05T13:15:22.681Z,100998.13
2022-09-05T13:18:00.430Z,100996.44
2022-09-05T13:20:36.681Z,101000.41
2022-09-05T13:23:16.373Z,101005.16
2022-09-05T13:25:50.587Z,101004.66
2022-09-05T13:28:25.217Z,100993.22
2022-09-05T13:37:53.545Z,100987.78
2022-09-05T13:37:55.088Z,100983.09
2022-09-05T13:38:14.306Z,100975.78
2022-09-05T13:39:49.210Z,100970.78
2022-09-05T13:42:21.221Z,100961.94
2022-09-05T13:44:54.246Z,100965.75
2022-09-05T13:47:39.806Z,100968.75
2022-09-05T13:50:25.670Z,100960.72
2022-09-05T13:53:05.099Z,100957.03
2022-09-05T13:55:43.402Z,100951.88
2022-09-05T13:58:19.319Z,100951.16
2022-09-05T14:01:21.129Z,100958.94
2022-09-05T14:07:45.877Z,100942.50
2022-09-05T14:10:45.867Z,100948.06
2022-09-05T14:13:20.103Z,100937.88
2022-09-05T14:15:59.018Z,100945.13
2022-09-05T14:18:34.039Z,100935.06
2022-09-05T14:21:18.117Z,100939.63
2022-09-05T14:24:03.344Z,100944.63
2022-09-05T14:26:41.092Z,100939.09
2022-09-05T14:29:18.308Z,100939.53
2022-09-05T14:37:36.373Z,100929.13
2022-09-05T14:37:40.628Z,100923.59
2022-09-05T14:38:34.564Z,100921.03
2022-09-05T14:41:54.665Z,100916.34
2022-09-05T14:45:13.929Z,100915.78
2022-09-05T14:48:13.848Z,100915.13
2022-09-05T14:51:25.220Z,100915.56
2022-09-05T14:54:00.309Z,100921.31
2022-09-05T15:00:34.518Z,100912.38
2022-09-05T15:02:50.743Z,100913.03
2022-09-05T15:03:02.057Z,100917.09
2022-09-05T15:05:46.722Z,100904.69
2022-09-05T15:09:29.951Z,100907.44
2022-09-05T15:12:18.373Z,100904.31
2022-09-05T15:14:06.103Z,100896.56
2022-09-05T15:16:40.377Z,100901.88
2022-09-05T15:19:13.468Z,100897.88
2022-09-05T15:21:41.897Z,100889.69
2022-09-05T15:24:17.449Z,100892.50
2022-09-05T15:26:52.969Z,100895.91
2022-09-05T15:29:26.832Z,100894.09
2022-09-05T15:32:13.796Z,100889.19
2022-09-05T15:34:43.757Z,100891.94
2022-09-05T15:37:36.673Z,100891.03
2022-09-05T15:40:23.833Z,100885.31
2022-09-05T15:42:56.169Z,100890.19
2022-09-05T15:45:29.723Z,100887.63
2022-09-05T15:48:08.771Z,100884.19
2022-09-05T15:50:46.096Z,100881.28
2022-09-05T15:53:23.158Z,100882.94
2022-09-05T15:56:00.936Z,100884.69
2022-09-05T15:58:52.552Z,100878.28
2022-09-05T16:01:32.670Z,100880.09
2022-09-05T16:08:05.507Z,100877.88
2022-09-05T16:10:38.521Z,100881.53
2022-09-05T16:10:40.965Z,100881.09
2022-09-05T16:12:52.221Z,100866.34
2022-09-05T16:18:58.608Z,100872.63
2022-09-05T16:23:16.012Z,100868.03
2022-09-05T16:23:29.335Z,100855.44
2022-09-05T16:24:24.688Z,100863.91
2022-09-05T16:27:02.308Z,100859.63
2022-09-05T16:29:36.218Z,100852.81
2022-09-05T16:32:24.639Z,100854.75
2022-09-05T16:35:24.895Z,100846.28
2022-09-05T16:38:02.888Z,100853.00
2022-09-05T16:40:36.864Z,100844.38
2022-09-05T16:43:11.884Z,100853.88
2022-09-05T16:45:48.139Z,100847.16
2022-09-05T16:48:41.174Z,100850.00
2022-09-05T16:51:28.737Z,100840.50
2022-09-05T16:54:13.449Z,100833.28
2022-09-05T16:56:46.564Z,100844.38
2022-09-05T16:59:19.315Z,100833.69
2022-09-05T17:02:07.962Z,100836.28
2022-09-05T17:05:05.021Z,100833.56
2022-09-05T17:08:03.956Z,100832.06
2022-09-05T17:10:36.598Z,100824.97
2022-09-05T17:13:10.758Z,100825.09
2022-09-05T17:15:52.571Z,100826.78
2022-09-05T17:18:31.826Z,100826.47
2022-09-05T17:21:10.749Z,100828.97
2022-09-05T17:29:17.678Z,100819.78
2022-09-05T17:29:33.141Z,100813.38
2022-09-05T17:31:25.161Z,100810.59
2022-09-05T17:32:43.577Z,100815.06
2022-09-05T17:35:42.717Z,100812.25
2022-09-05T17:38:49.724Z,100814.66
2022-09-05T17:41:52.058Z,100811.03
2022-09-05T17:44:27.685Z,100807.81
2022-09-05T17:47:10.234Z,100810.63
2022-09-05T17:49:45.911Z,100807.78
2022-09-05T17:52:24.290Z,100807.41
2022-09-05T17:54:55.482Z,100804.19
2022-09-05T17:57:39.015Z,100801.75
2022-09-05T18:00:41.282Z,100803.28
2022-09-05T18:03:11.154Z,100804.47
2022-09-05T18:06:03.974Z,100805.22
2022-09-05T18:08:52.828Z,100811.22
2022-09-05T18:11:36.347Z,100815.56
2022-09-05T18:14:50.279Z,100819.50
2022-09-05T18:17:50.890Z,100816.19
2022-09-05T18:20:27.504Z,100822.13
2022-09-05T18:23:18.295Z,100818.09
2022-09-05T18:26:02.413Z,100826.41
2022-09-05T18:28:35.440Z,100826.34
2022-09-05T18:31:43.395Z,100830.66
2022-09-05T18:34:41.577Z,100822.06
2022-09-05T18:37:47.997Z,100823.97
2022-09-05T18:40:44.203Z,100826.31
2022-09-05T18:43:30.644Z,100824.16
2022-09-05T18:46:05.292Z,100820.91
2022-09-05T18:49:15.902Z,100821.66
2022-09-05T18:51:49.236Z,100824.03
2022-09-05T18:54:20.647Z,100825.56
2022-09-05T18:57:26.620Z,100835.91
2022-09-05T18:59:52.054Z,100832.31
2022-09-05T19:02:51.495Z,100832.66
2022-09-05T19:05:28.736Z,100830.25
2022-09-05T19:08:29.281Z,100829.44
2022-09-05T19:11:27.532Z,100837.81
2022-09-05T19:14:25.606Z,100833.34
2022-09-05T19:17:03.422Z,100829.22
2022-09-05T19:20:33.900Z,100831.13
2022-09-05T19:23:10.779Z,100837.84
2022-09-05T19:25:44.827Z,100836.19
2022-09-05T19:36:44.726Z,100830.59
2022-09-05T19:36:48.647Z,100825.38
2022-09-05T19:37:09.251Z,100828.81
2022-09-05T19:43:51.187Z,100822.03
2022-09-05T19:47:44.521Z,100818.31
2022-09-05T19:47:49.885Z,100823.25
2022-09-05T19:48:35.284Z,100819.25
2022-09-05T19:51:16.346Z,100820.28
2022-09-05T19:53:48.901Z,100819.38
2022-09-05T19:56:44.623Z,100822.91
2022-09-05T19:59:22.441Z,100820.84
2022-09-05T20:01:53.186Z,100820.06
2022-09-05T20:04:24.015Z,100811.69
2022-09-05T20:06:52.525Z,100806.88
2022-09-05T20:09:43.021Z,100801.69
2022-09-05T20:12:22.114Z,100798.28
2022-09-05T20:14:53.230Z,100794.13
2022-09-05T20:17:30.538Z,100799.56
2022-09-05T20:20:13.702Z,100800.31
2022-09-05T20:22:50.428Z,100796.66
2022-09-05T20:25:36.153Z,100790.94
2022-09-05T20:28:10.201Z,100797.19
2022-09-05T20:30:43.250Z,100793.22
2022-09-05T20:33:21.744Z,100789.94
2022-09-05T20:39:22.606Z,100792.69
2022-09-05T20:43:21.594Z,100793.72
2022-09-05T20:43:32.445Z,100784.13
2022-09-05T20:44:42.324Z,100776.81
2022-09-05T20:48:31.814Z,100777.16
2022-09-05T20:54:13.817Z,100787.06
2022-09-05T20:54:17.838Z,100782.22
2022-09-05T20:55:48.694Z,100785.34
2022-09-05T20:58:24.690Z,100784.38
2022-09-05T21:01:21.163Z,100779.47
2022-09-05T21:03:57.377Z,100781.81
2022-09-05T21:06:41.332Z,100775.34
2022-09-05T21:09:17.764Z,100782.44
2022-09-05T21:11:56.065Z,100783.16
2022-09-05T21:14:30.573Z,100782.25
2022-09-05T21:17:14.750Z,100775.78
2022-09-05T21:19:53.160Z,100784.59
2022-09-05T21:22:26.279Z,100777.31
2022-09-05T21:25:15.479Z,100767.00
2022-09-05T21:27:56.377Z,100778.50
2022-09-05T21:30:30.640Z,100770.88
2022-09-05T21:33:06.026Z,100768.47
2022-09-05T21:35:42.524Z,100767.72
2022-09-05T21:38:14.198Z,100758.94
2022-09-05T21:40:52.071Z,100761.72
2022-09-05T21:47:34.599Z,100762.97
2022-09-05T21:47:48.432Z,100759.84
2022-09-05T21:49:01.269Z,100751.19
2022-09-05T21:51:30.984Z,100753.69
2022-09-05T21:59:14.632Z,100747.81
2022-09-05T21:59:27.732Z,100746.34
2022-09-05T21:59:47.506Z,100751.66
2022-09-05T22:02:16.804Z,100756.00
2022-09-05T22:04:47.193Z,100750.22
2022-09-05T22:07:30.524Z,100750.72
2022-09-05T22:10:16.401Z,100746.09
2022-09-05T22:12:51.745Z,100736.50
2022-09-05T22:15:27.673Z,100747.56
2022-09-05T22:18:26.973Z,100746.03
2022-09-05T22:20:51.789Z,100735.56
2022-09-05T22:23:44.911Z,100735.56
2022-09-05T22:26:15.707Z,100734.31
2022-09-05T22:28:49.103Z,100733.00
2022-09-05T22:31:19.470Z,100726.56
2022-09-05T22:33:51.222Z,100722.50
2022-09-05T22:36:20.698Z,100719.34
2022-09-05T22:38:50.133Z,100717.59
2022-09-05T22:41:29.951Z,100727.84
2022-09-05T22:44:00.530Z,100722.94
2022-09-05T22:46:29.370Z,100722.03
2022-09-05T22:48:57.761Z,100732.91
2022-09-05T22:51:26.029Z,100726.00
2022-09-05T22:53:54.286Z,100725.53
2022-09-05T22:56:38.074Z,100729.13
2022-09-05T22:59:09.284Z,100723.94
2022-09-05T23:01:38.200Z,100729.38
2022-09-05T23:04:06.751Z,100724.03
2022-09-05T23:06:38.567Z,100732.75
2022-09-05T23:09:07.173Z,100727.09
2022-09-05T23:11:35.866Z,100727.31
2022-09-05T23:14:08.401Z,100739.16
2022-09-05T23:16:36.876Z,100733.03
2022-09-05T23:19:05.374Z,100730.53
2022-09-05T23:21:39.096Z,100732.72
2022-09-05T23:24:07.500Z,100730.19
2022-09-05T23:26:35.930Z,100728.16
2022-09-05T23:29:04.264Z,100733.28
2022-09-05T23:31:34.008Z,100738.75
2022-09-05T23:34:02.263Z,100727.13
2022-09-05T23:36:31.280Z,100723.41
2022-09-05T23:38:59.795Z,100723.41
2022-09-05T23:41:28.177Z,100725.75
2022-09-05T23:43:56.680Z,100718.41
2022-09-05T23:46:25.440Z,100719.56
2022-09-05T23:48:55.433Z,100713.53
2022-09-05T23:51:23.668Z,100721.31
2022-09-05T23:53:52.067Z,100716.94
2022-09-05T23:56:20.456Z,100714.16
2022-09-05T23:58:49.089Z,100706.09
